sensor_id;sensor_type;location;lat;lon;timestamp;P1;durP1;ratioP1;P2;durP2;ratioP2
13975;SDS011;7062;49.792;9.946;2023-10-09T00:02:11;4.47;;;2.87;;
13975;SDS011;7062;49.792;9.946;2023-10-09T00:04:37;4.27;;;2.80;;
13975;SDS011;7062;49.792;9.946;2023-10-09T00:07:06;5.60;;;2.60;;
13975;SDS011;7062;49.792;9.946;2023-10-09T00:09:33;2.73;;;2.30;;
13975;SDS011;7062;49.792;9.946;2023-10-09T00:12:11;7.90;;;3.50;;
13975;SDS011;7062;49.792;9.946;2023-10-09T00:14:49;2.87;;;2.60;;
13975;SDS011;7062;49.792;9.946;2023-10-09T00:17:16;2.63;;;2.10;;
13975;SDS011;7062;49.792;9.946;2023-10-09T00:19:45;3.67;;;2.67;;
13975;SDS011;7062;49.792;9.946;2023-10-09T00:22:24;3.00;;;2.30;;
13975;SDS011;7062;49.792;9.946;2023-10-09T00:24:50;5.80;;;2.60;;
13975;SDS011;7062;49.792;9.946;2023-10-09T00:27:34;3.37;;;3.07;;
13975;SDS011;7062;49.792;9.946;2023-10-09T00:30:01;3.33;;;2.27;;
13975;SDS011;7062;49.792;9.946;2023-10-09T00:32:31;5.43;;;2.87;;
13975;SDS011;7062;49.792;9.946;2023-10-09T00:34:58;4.63;;;2.77;;
13975;SDS011;7062;49.792;9.946;2023-10-09T00:37:44;5.13;;;2.57;;
13975;SDS011;7062;49.792;9.946;2023-10-09T00:40:10;4.17;;;2.83;;
13975;SDS011;7062;49.792;9.946;2023-10-09T00:42:45;3.10;;;2.53;;
13975;SDS011;7062;49.792;9.946;2023-10-09T00:45:12;3.23;;;2.43;;
13975;SDS011;7062;49.792;9.946;2023-10-09T00:47:49;2.53;;;2.33;;
13975;SDS011;7062;49.792;9.946;2023-10-09T00:50:16;4.80;;;2.10;;
13975;SDS011;7062;49.792;9.946;2023-10-09T00:52:42;3.90;;;2.37;;
13975;SDS011;7062;49.792;9.946;2023-10-09T00:55:27;3.43;;;2.50;;
13975;SDS011;7062;49.792;9.946;2023-10-09T00:58:01;3.10;;;1.83;;
13975;SDS011;7062;49.792;9.946;2023-10-09T01:00:34;3.27;;;2.40;;
13975;SDS011;7062;49.792;9.946;2023-10-09T01:03:13;6.10;;;2.73;;
13975;SDS011;7062;49.792;9.946;2023-10-09T01:08:26;3.20;;;2.83;;
13975;SDS011;7062;49.792;9.946;2023-10-09T01:10:57;3.10;;;2.47;;
13975;SDS011;7062;49.792;9.946;2023-10-09T01:13:43;4.17;;;2.67;;
13975;SDS011;7062;49.792;9.946;2023-10-09T01:16:16;4.83;;;2.70;;
13975;SDS011;7062;49.792;9.946;2023-10-09T01:21:14;3.67;;;2.77;;
13975;SDS011;7062;49.792;9.946;2023-10-09T01:23:41;5.67;;;3.03;;
13975;SDS011;7062;49.792;9.946;2023-10-09T01:26:48;4.33;;;2.40;;
13975;SDS011;7062;49.792;9.946;2023-10-09T01:29:15;7.77;;;3.07;;
13975;SDS011;7062;49.792;9.946;2023-10-09T01:31:50;5.47;;;2.70;;
13975;SDS011;7062;49.792;9.946;2023-10-09T01:34:17;2.83;;;2.37;;
13975;SDS011;7062;49.792;9.946;2023-10-09T01:36:44;3.60;;;2.63;;
13975;SDS011;7062;49.792;9.946;2023-10-09T01:39:14;4.00;;;2.60;;
13975;SDS011;7062;49.792;9.946;2023-10-09T01:41:52;3.67;;;2.67;;
13975;SDS011;7062;49.792;9.946;2023-10-09T01:44:25;4.43;;;2.40;;
13975;SDS011;7062;49.792;9.946;2023-10-09T01:46:53;4.67;;;3.33;;
13975;SDS011;7062;49.792;9.946;2023-10-09T01:49:22;5.37;;;2.97;;
13975;SDS011;7062;49.792;9.946;2023-10-09T01:51:55;3.87;;;2.27;;
13975;SDS011;7062;49.792;9.946;2023-10-09T01:54:23;5.30;;;2.77;;
13975;SDS011;7062;49.792;9.946;2023-10-09T01:57:02;7.20;;;3.00;;
13975;SDS011;7062;49.792;9.946;2023-10-09T01:59:33;3.80;;;2.80;;
13975;SDS011;7062;49.792;9.946;2023-10-09T02:02:03;4.77;;;3.53;;
13975;SDS011;7062;49.792;9.946;2023-10-09T02:04:55;5.17;;;3.23;;
13975;SDS011;7062;49.792;9.946;2023-10-09T02:07:37;3.17;;;2.87;;
13975;SDS011;7062;49.792;9.946;2023-10-09T02:10:10;4.77;;;2.87;;
13975;SDS011;7062;49.792;9.946;2023-10-09T02:13:28;4.37;;;2.63;;
13975;SDS011;7062;49.792;9.946;2023-10-09T02:15:56;7.70;;;2.97;;
13975;SDS011;7062;49.792;9.946;2023-10-09T02:18:37;5.50;;;3.03;;
13975;SDS011;7062;49.792;9.946;2023-10-09T02:21:17;6.10;;;3.37;;
13975;SDS011;7062;49.792;9.946;2023-10-09T02:23:53;3.57;;;2.33;;
13975;SDS011;7062;49.792;9.946;2023-10-09T02:26:22;5.00;;;2.23;;
13975;SDS011;7062;49.792;9.946;2023-10-09T02:28:57;3.40;;;3.00;;
13975;SDS011;7062;49.792;9.946;2023-10-09T02:31:30;5.77;;;3.03;;
13975;SDS011;7062;49.792;9.946;2023-10-09T02:34:05;6.07;;;3.10;;
13975;SDS011;7062;49.792;9.946;2023-10-09T02:36:33;5.93;;;3.10;;
13975;SDS011;7062;49.792;9.946;2023-10-09T02:39:22;2.33;;;2.10;;
13975;SDS011;7062;49.792;9.946;2023-10-09T02:41:54;2.90;;;2.23;;
13975;SDS011;7062;49.792;9.946;2023-10-09T02:44:41;4.03;;;3.30;;
13975;SDS011;7062;49.792;9.946;2023-10-09T02:47:15;3.20;;;2.43;;
13975;SDS011;7062;49.792;9.946;2023-10-09T02:50:04;3.40;;;2.77;;
13975;SDS011;7062;49.792;9.946;2023-10-09T02:52:44;5.07;;;2.60;;
13975;SDS011;7062;49.792;9.946;2023-10-09T02:55:12;5.07;;;2.70;;
13975;SDS011;7062;49.792;9.946;2023-10-09T02:57:54;5.20;;;2.93;;
13975;SDS011;7062;49.792;9.946;2023-10-09T03:00:45;5.23;;;3.07;;
13975;SDS011;7062;49.792;9.946;2023-10-09T03:03:12;3.73;;;2.53;;
13975;SDS011;7062;49.792;9.946;2023-10-09T03:05:38;5.13;;;3.50;;
13975;SDS011;7062;49.792;9.946;2023-10-09T03:08:07;3.23;;;2.20;;
13975;SDS011;7062;49.792;9.946;2023-10-09T03:10:33;4.23;;;2.70;;
13975;SDS011;7062;49.792;9.946;2023-10-09T03:12:59;4.33;;;2.83;;
13975;SDS011;7062;49.792;9.946;2023-10-09T03:15:26;8.67;;;2.40;;
13975;SDS011;7062;49.792;9.946;2023-10-09T03:17:54;6.67;;;3.13;;
13975;SDS011;7062;49.792;9.946;2023-10-09T03:20:19;4.90;;;2.73;;
13975;SDS011;7062;49.792;9.946;2023-10-09T03:22:45;3.13;;;2.70;;
13975;SDS011;7062;49.792;9.946;2023-10-09T03:25:12;4.47;;;2.43;;
13975;SDS011;7062;49.792;9.946;2023-10-09T03:27:42;5.10;;;2.83;;
13975;SDS011;7062;49.792;9.946;2023-10-09T03:30:14;4.13;;;3.30;;
13975;SDS011;7062;49.792;9.946;2023-10-09T03:32:48;3.03;;;2.43;;
13975;SDS011;7062;49.792;9.946;2023-10-09T03:35:20;5.83;;;3.33;;
13975;SDS011;7062;49.792;9.946;2023-10-09T03:37:51;3.03;;;2.20;;
13975;SDS011;7062;49.792;9.946;2023-10-09T03:40:22;6.13;;;2.67;;
13975;SDS011;7062;49.792;9.946;2023-10-09T03:42:48;3.70;;;2.80;;
13975;SDS011;7062;49.792;9.946;2023-10-09T03:45:13;4.00;;;2.53;;
13975;SDS011;7062;49.792;9.946;2023-10-09T03:47:53;3.27;;;2.80;;
13975;SDS011;7062;49.792;9.946;2023-10-09T03:50:42;5.93;;;2.43;;
13975;SDS011;7062;49.792;9.946;2023-10-09T03:53:08;5.93;;;3.13;;
13975;SDS011;7062;49.792;9.946;2023-10-09T03:55:37;7.40;;;3.00;;
13975;SDS011;7062;49.792;9.946;2023-10-09T03:58:04;4.27;;;2.60;;
13975;SDS011;7062;49.792;9.946;2023-10-09T04:00:37;7.37;;;2.83;;
13975;SDS011;7062;49.792;9.946;2023-10-09T04:03:14;6.00;;;3.50;;
13975;SDS011;7062;49.792;9.946;2023-10-09T04:05:40;3.57;;;3.20;;
13975;SDS011;7062;49.792;9.946;2023-10-09T04:08:11;6.53;;;3.30;;
13975;SDS011;7062;49.792;9.946;2023-10-09T04:10:39;4.43;;;3.03;;
13975;SDS011;7062;49.792;9.946;2023-10-09T04:13:19;5.07;;;3.20;;
13975;SDS011;7062;49.792;9.946;2023-10-09T04:15:50;3.50;;;2.60;;
13975;SDS011;7062;49.792;9.946;2023-10-09T04:18:18;5.90;;;2.90;;
13975;SDS011;7062;49.792;9.946;2023-10-09T04:20:53;4.33;;;3.30;;
13975;SDS011;7062;49.792;9.946;2023-10-09T04:23:37;4.73;;;2.87;;
13975;SDS011;7062;49.792;9.946;2023-10-09T04:26:21;3.70;;;2.93;;
13975;SDS011;7062;49.792;9.946;2023-10-09T04:28:50;4.23;;;3.30;;
13975;SDS011;7062;49.792;9.946;2023-10-09T04:31:18;6.60;;;3.53;;
13975;SDS011;7062;49.792;9.946;2023-10-09T04:33:46;7.03;;;3.53;;
13975;SDS011;7062;49.792;9.946;2023-10-09T04:36:32;6.30;;;3.63;;
13975;SDS011;7062;49.792;9.946;2023-10-09T04:39:11;6.10;;;3.90;;
13975;SDS011;7062;49.792;9.946;2023-10-09T04:41:36;6.77;;;3.63;;
13975;SDS011;7062;49.792;9.946;2023-10-09T04:44:08;4.83;;;3.57;;
13975;SDS011;7062;49.792;9.946;2023-10-09T04:46:54;7.07;;;3.20;;
13975;SDS011;7062;49.792;9.946;2023-10-09T04:49:38;6.23;;;3.70;;
13975;SDS011;7062;49.792;9.946;2023-10-09T04:52:13;5.30;;;3.80;;
13975;SDS011;7062;49.792;9.946;2023-10-09T04:54:54;5.67;;;3.70;;
13975;SDS011;7062;49.792;9.946;2023-10-09T04:57:39;4.30;;;3.60;;
13975;SDS011;7062;49.792;9.946;2023-10-09T05:00:06;6.33;;;3.43;;
13975;SDS011;7062;49.792;9.946;2023-10-09T05:03:07;4.20;;;3.47;;
13975;SDS011;7062;49.792;9.946;2023-10-09T05:05:52;6.17;;;4.13;;
13975;SDS011;7062;49.792;9.946;2023-10-09T05:08:27;7.17;;;4.03;;
13975;SDS011;7062;49.792;9.946;2023-10-09T05:10:54;4.37;;;3.97;;
13975;SDS011;7062;49.792;9.946;2023-10-09T05:13:26;10.50;;;4.13;;
13975;SDS011;7062;49.792;9.946;2023-10-09T05:18:54;4.30;;;3.50;;
13975;SDS011;7062;49.792;9.946;2023-10-09T05:21:30;3.43;;;3.10;;
13975;SDS011;7062;49.792;9.946;2023-10-09T05:23:58;4.30;;;3.40;;
13975;SDS011;7062;49.792;9.946;2023-10-09T05:26:43;5.00;;;3.50;;
13975;SDS011;7062;49.792;9.946;2023-10-09T05:29:13;7.10;;;3.90;;
13975;SDS011;7062;49.792;9.946;2023-10-09T05:31:57;8.43;;;3.77;;
13975;SDS011;7062;49.792;9.946;2023-10-09T05:34:40;4.43;;;3.33;;
13975;SDS011;7062;49.792;9.946;2023-10-09T05:37:29;5.30;;;3.30;;
13975;SDS011;7062;49.792;9.946;2023-10-09T05:40:00;5.30;;;3.83;;
13975;SDS011;7062;49.792;9.946;2023-10-09T05:42:31;7.13;;;4.03;;
13975;SDS011;7062;49.792;9.946;2023-10-09T05:47:43;5.57;;;3.70;;
13975;SDS011;7062;49.792;9.946;2023-10-09T05:50:19;11.20;;;5.03;;
13975;SDS011;7062;49.792;9.946;2023-10-09T05:52:54;11.27;;;4.87;;
13975;SDS011;7062;49.792;9.946;2023-10-09T05:55:22;4.67;;;4.10;;
13975;SDS011;7062;49.792;9.946;2023-10-09T05:57:52;7.00;;;4.43;;
13975;SDS011;7062;49.792;9.946;2023-10-09T06:00:18;5.50;;;4.83;;
13975;SDS011;7062;49.792;9.946;2023-10-09T06:03:03;5.23;;;4.43;;
13975;SDS011;7062;49.792;9.946;2023-10-09T06:05:47;7.77;;;4.30;;
13975;SDS011;7062;49.792;9.946;2023-10-09T06:08:23;6.50;;;4.63;;
13975;SDS011;7062;49.792;9.946;2023-10-09T06:10:54;11.60;;;3.77;;
13975;SDS011;7062;49.792;9.946;2023-10-09T06:13:39;7.17;;;4.60;;
13975;SDS011;7062;49.792;9.946;2023-10-09T06:16:11;7.83;;;4.67;;
13975;SDS011;7062;49.792;9.946;2023-10-09T06:18:56;12.87;;;4.50;;
13975;SDS011;7062;49.792;9.946;2023-10-09T06:21:42;14.43;;;4.63;;
13975;SDS011;7062;49.792;9.946;2023-10-09T06:24:07;10.37;;;4.50;;
13975;SDS011;7062;49.792;9.946;2023-10-09T06:26:39;8.90;;;4.70;;
13975;SDS011;7062;49.792;9.946;2023-10-09T06:29:16;9.43;;;4.13;;
13975;SDS011;7062;49.792;9.946;2023-10-09T06:31:58;12.20;;;4.33;;
13975;SDS011;7062;49.792;9.946;2023-10-09T06:34:41;20.03;;;5.57;;
13975;SDS011;7062;49.792;9.946;2023-10-09T06:37:09;17.40;;;5.50;;
13975;SDS011;7062;49.792;9.946;2023-10-09T06:42:34;17.20;;;5.20;;
13975;SDS011;7062;49.792;9.946;2023-10-09T06:45:03;13.10;;;5.30;;
13975;SDS011;7062;49.792;9.946;2023-10-09T06:47:42;7.53;;;4.50;;
13975;SDS011;7062;49.792;9.946;2023-10-09T06:50:29;9.40;;;4.77;;
13975;SDS011;7062;49.792;9.946;2023-10-09T06:53:21;11.30;;;4.47;;
13975;SDS011;7062;49.792;9.946;2023-10-09T06:55:53;9.43;;;4.83;;
13975;SDS011;7062;49.792;9.946;2023-10-09T06:58:30;6.37;;;3.87;;
13975;SDS011;7062;49.792;9.946;2023-10-09T07:01:07;8.03;;;4.70;;
13975;SDS011;7062;49.792;9.946;2023-10-09T07:03:50;7.87;;;3.70;;
13975;SDS011;7062;49.792;9.946;2023-10-09T07:06:21;7.73;;;5.23;;
13975;SDS011;7062;49.792;9.946;2023-10-09T07:08:53;10.17;;;4.67;;
13975;SDS011;7062;49.792;9.946;2023-10-09T07:11:50;7.37;;;4.50;;
13975;SDS011;7062;49.792;9.946;2023-10-09T07:14:23;9.83;;;4.50;;
13975;SDS011;7062;49.792;9.946;2023-10-09T07:16:59;12.73;;;5.03;;
13975;SDS011;7062;49.792;9.946;2023-10-09T07:19:29;6.93;;;3.63;;
13975;SDS011;7062;49.792;9.946;2023-10-09T07:22:07;7.40;;;4.77;;
13975;SDS011;7062;49.792;9.946;2023-10-09T07:27:25;6.57;;;4.40;;
13975;SDS011;7062;49.792;9.946;2023-10-09T07:30:11;9.23;;;5.67;;
13975;SDS011;7062;49.792;9.946;2023-10-09T07:35:35;10.73;;;4.63;;
13975;SDS011;7062;49.792;9.946;2023-10-09T07:38:08;21.73;;;6.07;;
13975;SDS011;7062;49.792;9.946;2023-10-09T07:40:38;9.90;;;4.87;;
13975;SDS011;7062;49.792;9.946;2023-10-09T07:43:24;11.90;;;4.90;;
13975;SDS011;7062;49.792;9.946;2023-10-09T07:46:04;12.90;;;5.93;;
13975;SDS011;7062;49.792;9.946;2023-10-09T07:48:51;12.57;;;4.40;;
13975;SDS011;7062;49.792;9.946;2023-10-09T07:51:20;5.80;;;3.87;;
13975;SDS011;7062;49.792;9.946;2023-10-09T07:53:49;8.68;;;4.55;;
13975;SDS011;7062;49.792;9.946;2023-10-09T07:56:22;8.27;;;4.40;;
13975;SDS011;7062;49.792;9.946;2023-10-09T07:58:48;7.13;;;4.10;;
13975;SDS011;7062;49.792;9.946;2023-10-09T08:01:14;9.40;;;4.27;;
13975;SDS011;7062;49.792;9.946;2023-10-09T08:03:44;8.33;;;4.17;;
13975;SDS011;7062;49.792;9.946;2023-10-09T08:06:12;7.57;;;4.33;;
13975;SDS011;7062;49.792;9.946;2023-10-09T08:08:57;9.77;;;3.93;;
13975;SDS011;7062;49.792;9.946;2023-10-09T08:11:38;8.73;;;4.07;;
13975;SDS011;7062;49.792;9.946;2023-10-09T08:14:10;10.30;;;4.90;;
13975;SDS011;7062;49.792;9.946;2023-10-09T08:16:58;5.57;;;3.77;;
13975;SDS011;7062;49.792;9.946;2023-10-09T08:19:40;8.20;;;5.57;;
13975;SDS011;7062;49.792;9.946;2023-10-09T08:22:36;10.73;;;4.97;;
13975;SDS011;7062;49.792;9.946;2023-10-09T08:25:09;10.43;;;3.93;;
13975;SDS011;7062;49.792;9.946;2023-10-09T08:27:51;6.67;;;4.10;;
13975;SDS011;7062;49.792;9.946;2023-10-09T08:30:22;8.97;;;4.13;;
13975;SDS011;7062;49.792;9.946;2023-10-09T08:32:48;6.47;;;3.63;;
13975;SDS011;7062;49.792;9.946;2023-10-09T08:35:32;7.00;;;4.50;;
13975;SDS011;7062;49.792;9.946;2023-10-09T08:37:59;8.63;;;4.27;;
13975;SDS011;7062;49.792;9.946;2023-10-09T08:40:33;9.07;;;5.27;;
13975;SDS011;7062;49.792;9.946;2023-10-09T08:43:14;12.87;;;5.27;;
13975;SDS011;7062;49.792;9.946;2023-10-09T08:46:16;12.10;;;5.07;;
13975;SDS011;7062;49.792;9.946;2023-10-09T08:48:38;10.53;;;5.13;;
13975;SDS011;7062;49.792;9.946;2023-10-09T08:51:04;13.13;;;6.37;;
13975;SDS011;7062;49.792;9.946;2023-10-09T08:53:31;8.00;;;4.53;;
13975;SDS011;7062;49.792;9.946;2023-10-09T08:55:58;11.50;;;4.20;;
13975;SDS011;7062;49.792;9.946;2023-10-09T08:58:28;5.77;;;4.73;;
13975;SDS011;7062;49.792;9.946;2023-10-09T09:00:59;7.53;;;3.83;;
13975;SDS011;7062;49.792;9.946;2023-10-09T09:03:26;7.93;;;3.63;;
13975;SDS011;7062;49.792;9.946;2023-10-09T09:06:01;11.90;;;4.60;;
13975;SDS011;7062;49.792;9.946;2023-10-09T09:08:27;12.10;;;5.60;;
13975;SDS011;7062;49.792;9.946;2023-10-09T09:10:58;8.10;;;5.03;;
13975;SDS011;7062;49.792;9.946;2023-10-09T09:21:42;10.23;;;5.87;;
13975;SDS011;7062;49.792;9.946;2023-10-09T09:24:12;11.17;;;5.07;;
13975;SDS011;7062;49.792;9.946;2023-10-09T09:26:48;9.80;;;4.83;;
13975;SDS011;7062;49.792;9.946;2023-10-09T09:29:24;12.07;;;5.93;;
13975;SDS011;7062;49.792;9.946;2023-10-09T09:32:02;10.00;;;5.07;;
13975;SDS011;7062;49.792;9.946;2023-10-09T09:34:50;10.37;;;5.03;;
13975;SDS011;7062;49.792;9.946;2023-10-09T09:37:29;11.83;;;5.77;;
13975;SDS011;7062;49.792;9.946;2023-10-09T09:40:05;13.07;;;5.90;;
13975;SDS011;7062;49.792;9.946;2023-10-09T09:42:52;9.03;;;4.30;;
13975;SDS011;7062;49.792;9.946;2023-10-09T09:45:21;11.43;;;5.00;;
13975;SDS011;7062;49.792;9.946;2023-10-09T09:47:49;13.10;;;4.93;;
13975;SDS011;7062;49.792;9.946;2023-10-09T09:50:18;9.07;;;3.90;;
13975;SDS011;7062;49.792;9.946;2023-10-09T09:52:49;8.47;;;4.63;;
13975;SDS011;7062;49.792;9.946;2023-10-09T09:55:21;10.33;;;4.80;;
13975;SDS011;7062;49.792;9.946;2023-10-09T09:57:56;10.73;;;4.90;;
13975;SDS011;7062;49.792;9.946;2023-10-09T10:00:25;7.43;;;3.93;;
13975;SDS011;7062;49.792;9.946;2023-10-09T10:03:18;7.00;;;3.83;;
13975;SDS011;7062;49.792;9.946;2023-10-09T10:05:50;8.17;;;4.70;;
13975;SDS011;7062;49.792;9.946;2023-10-09T10:08:18;7.40;;;4.57;;
13975;SDS011;7062;49.792;9.946;2023-10-09T10:10:48;9.50;;;4.50;;
13975;SDS011;7062;49.792;9.946;2023-10-09T10:16:26;11.07;;;4.27;;
13975;SDS011;7062;49.792;9.946;2023-10-09T10:21:32;13.97;;;4.67;;
13975;SDS011;7062;49.792;9.946;2023-10-09T10:24:03;8.83;;;3.80;;
13975;SDS011;7062;49.792;9.946;2023-10-09T10:26:35;9.17;;;4.20;;
13975;SDS011;7062;49.792;9.946;2023-10-09T10:29:17;10.50;;;4.37;;
13975;SDS011;7062;49.792;9.946;2023-10-09T10:31:59;12.57;;;4.13;;
13975;SDS011;7062;49.792;9.946;2023-10-09T10:37:35;10.83;;;4.03;;
13975;SDS011;7062;49.792;9.946;2023-10-09T10:40:30;12.80;;;4.77;;
13975;SDS011;7062;49.792;9.946;2023-10-09T10:43:17;11.63;;;4.03;;
13975;SDS011;7062;49.792;9.946;2023-10-09T10:46:05;9.73;;;3.87;;
13975;SDS011;7062;49.792;9.946;2023-10-09T10:48:49;10.33;;;3.83;;
13975;SDS011;7062;49.792;9.946;2023-10-09T10:51:25;7.63;;;3.37;;
13975;SDS011;7062;49.792;9.946;2023-10-09T10:54:03;7.10;;;3.70;;
13975;SDS011;7062;49.792;9.946;2023-10-09T10:56:48;8.33;;;3.80;;
13975;SDS011;7062;49.792;9.946;2023-10-09T10:59:16;9.73;;;3.37;;
13975;SDS011;7062;49.792;9.946;2023-10-09T11:01:49;6.40;;;3.67;;
13975;SDS011;7062;49.792;9.946;2023-10-09T11:04:45;12.10;;;4.70;;
13975;SDS011;7062;49.792;9.946;2023-10-09T11:07:20;10.50;;;4.10;;
13975;SDS011;7062;49.792;9.946;2023-10-09T11:09:52;8.03;;;3.53;;
13975;SDS011;7062;49.792;9.946;2023-10-09T11:15:08;12.50;;;4.67;;
13975;SDS011;7062;49.792;9.946;2023-10-09T11:18:01;10.13;;;4.30;;
13975;SDS011;7062;49.792;9.946;2023-10-09T11:20:57;7.67;;;4.47;;
13975;SDS011;7062;49.792;9.946;2023-10-09T11:23:32;11.73;;;4.23;;
13975;SDS011;7062;49.792;9.946;2023-10-09T11:26:01;10.23;;;4.07;;
13975;SDS011;7062;49.792;9.946;2023-10-09T11:28:46;10.13;;;3.73;;
13975;SDS011;7062;49.792;9.946;2023-10-09T11:31:38;8.10;;;3.60;;
13975;SDS011;7062;49.792;9.946;2023-10-09T11:34:05;11.63;;;4.60;;
13975;SDS011;7062;49.792;9.946;2023-10-09T11:36:53;8.30;;;4.33;;
13975;SDS011;7062;49.792;9.946;2023-10-09T11:39:24;8.27;;;3.27;;
13975;SDS011;7062;49.792;9.946;2023-10-09T11:42:03;12.03;;;3.33;;
13975;SDS011;7062;49.792;9.946;2023-10-09T11:44:36;8.40;;;3.23;;
13975;SDS011;7062;49.792;9.946;2023-10-09T11:47:04;13.07;;;4.33;;
13975;SDS011;7062;49.792;9.946;2023-10-09T11:52:22;5.77;;;3.10;;
13975;SDS011;7062;49.792;9.946;2023-10-09T11:55:00;7.87;;;3.27;;
13975;SDS011;7062;49.792;9.946;2023-10-09T11:57:31;7.17;;;3.60;;
13975;SDS011;7062;49.792;9.946;2023-10-09T12:00:05;6.83;;;3.53;;
13975;SDS011;7062;49.792;9.946;2023-10-09T12:02:49;9.40;;;4.00;;
13975;SDS011;7062;49.792;9.946;2023-10-09T12:05:15;10.10;;;3.03;;
13975;SDS011;7062;49.792;9.946;2023-10-09T12:07:47;8.13;;;2.93;;
13975;SDS011;7062;49.792;9.946;2023-10-09T12:10:20;6.03;;;3.30;;
13975;SDS011;7062;49.792;9.946;2023-10-09T12:12:54;8.33;;;3.10;;
13975;SDS011;7062;49.792;9.946;2023-10-09T12:15:23;5.17;;;3.70;;
13975;SDS011;7062;49.792;9.946;2023-10-09T12:17:50;12.03;;;3.50;;
13975;SDS011;7062;49.792;9.946;2023-10-09T12:20:18;5.33;;;3.40;;
13975;SDS011;7062;49.792;9.946;2023-10-09T12:22:59;8.43;;;3.70;;
13975;SDS011;7062;49.792;9.946;2023-10-09T12:25:29;8.60;;;3.07;;
13975;SDS011;7062;49.792;9.946;2023-10-09T12:27:59;6.83;;;3.57;;
13975;SDS011;7062;49.792;9.946;2023-10-09T12:30:27;10.73;;;3.83;;
13975;SDS011;7062;49.792;9.946;2023-10-09T12:32:54;10.07;;;4.43;;
13975;SDS011;7062;49.792;9.946;2023-10-09T12:35:23;11.27;;;4.60;;
13975;SDS011;7062;49.792;9.946;2023-10-09T12:37:50;4.83;;;3.13;;
13975;SDS011;7062;49.792;9.946;2023-10-09T12:40:16;8.50;;;4.60;;
13975;SDS011;7062;49.792;9.946;2023-10-09T12:42:49;17.03;;;4.97;;
13975;SDS011;7062;49.792;9.946;2023-10-09T12:45:17;6.23;;;3.27;;
13975;SDS011;7062;49.792;9.946;2023-10-09T12:47:45;8.07;;;3.77;;
13975;SDS011;7062;49.792;9.946;2023-10-09T12:50:12;17.83;;;4.37;;
13975;SDS011;7062;49.792;9.946;2023-10-09T12:52:39;15.90;;;4.77;;
13975;SDS011;7062;49.792;9.946;2023-10-09T12:55:05;9.10;;;4.10;;
13975;SDS011;7062;49.792;9.946;2023-10-09T12:57:33;9.20;;;3.43;;
13975;SDS011;7062;49.792;9.946;2023-10-09T12:59:59;5.83;;;3.70;;
13975;SDS011;7062;49.792;9.946;2023-10-09T13:02:24;7.27;;;4.87;;
13975;SDS011;7062;49.792;9.946;2023-10-09T13:04:56;8.80;;;3.80;;
13975;SDS011;7062;49.792;9.946;2023-10-09T13:07:24;19.77;;;4.67;;
13975;SDS011;7062;49.792;9.946;2023-10-09T13:09:50;13.50;;;3.93;;
13975;SDS011;7062;49.792;9.946;2023-10-09T13:12:36;9.97;;;3.27;;
13975;SDS011;7062;49.792;9.946;2023-10-09T13:15:10;12.67;;;3.60;;
13975;SDS011;7062;49.792;9.946;2023-10-09T13:17:39;5.60;;;3.23;;
13975;SDS011;7062;49.792;9.946;2023-10-09T13:20:06;16.23;;;3.87;;
13975;SDS011;7062;49.792;9.946;2023-10-09T13:22:41;9.43;;;2.83;;
13975;SDS011;7062;49.792;9.946;2023-10-09T13:25:10;6.60;;;3.47;;
13975;SDS011;7062;49.792;9.946;2023-10-09T13:27:49;11.83;;;4.60;;
13975;SDS011;7062;49.792;9.946;2023-10-09T13:30:19;14.10;;;5.30;;
13975;SDS011;7062;49.792;9.946;2023-10-09T13:32:51;14.33;;;5.27;;
13975;SDS011;7062;49.792;9.946;2023-10-09T13:35:17;9.67;;;3.93;;
13975;SDS011;7062;49.792;9.946;2023-10-09T13:37:44;11.10;;;3.57;;
13975;SDS011;7062;49.792;9.946;2023-10-09T13:40:19;17.00;;;3.97;;
13975;SDS011;7062;49.792;9.946;2023-10-09T13:42:54;8.00;;;3.80;;
13975;SDS011;7062;49.792;9.946;2023-10-09T13:45:24;4.67;;;3.53;;
13975;SDS011;7062;49.792;9.946;2023-10-09T13:47:52;8.57;;;3.77;;
13975;SDS011;7062;49.792;9.946;2023-10-09T13:50:20;7.73;;;3.57;;
13975;SDS011;7062;49.792;9.946;2023-10-09T13:52:48;10.47;;;3.37;;
13975;SDS011;7062;49.792;9.946;2023-10-09T13:55:13;7.13;;;3.13;;
13975;SDS011;7062;49.792;9.946;2023-10-09T13:57:42;9.50;;;3.67;;
13975;SDS011;7062;49.792;9.946;2023-10-09T14:00:12;7.87;;;3.80;;
13975;SDS011;7062;49.792;9.946;2023-10-09T14:02:58;8.77;;;3.80;;
13975;SDS011;7062;49.792;9.946;2023-10-09T14:05:29;6.80;;;3.27;;
13975;SDS011;7062;49.792;9.946;2023-10-09T14:07:55;13.20;;;4.40;;
13975;SDS011;7062;49.792;9.946;2023-10-09T14:10:25;8.30;;;3.93;;
13975;SDS011;7062;49.792;9.946;2023-10-09T14:12:55;8.60;;;3.57;;
13975;SDS011;7062;49.792;9.946;2023-10-09T14:15:22;12.30;;;4.10;;
13975;SDS011;7062;49.792;9.946;2023-10-09T14:17:48;7.50;;;3.57;;
13975;SDS011;7062;49.792;9.946;2023-10-09T14:20:20;7.17;;;3.93;;
13975;SDS011;7062;49.792;9.946;2023-10-09T14:22:57;8.70;;;4.30;;
13975;SDS011;7062;49.792;9.946;2023-10-09T14:25:31;9.33;;;4.23;;
13975;SDS011;7062;49.792;9.946;2023-10-09T14:28:07;13.03;;;4.67;;
13975;SDS011;7062;49.792;9.946;2023-10-09T14:30:37;8.00;;;3.57;;
13975;SDS011;7062;49.792;9.946;2023-10-09T14:33:10;10.10;;;3.27;;
13975;SDS011;7062;49.792;9.946;2023-10-09T14:35:40;8.77;;;4.33;;
13975;SDS011;7062;49.792;9.946;2023-10-09T14:38:06;9.90;;;5.03;;
13975;SDS011;7062;49.792;9.946;2023-10-09T14:40:44;7.47;;;3.77;;
13975;SDS011;7062;49.792;9.946;2023-10-09T14:43:10;7.70;;;4.30;;
13975;SDS011;7062;49.792;9.946;2023-10-09T14:45:49;6.33;;;4.13;;
13975;SDS011;7062;49.792;9.946;2023-10-09T14:48:18;7.47;;;3.33;;
13975;SDS011;7062;49.792;9.946;2023-10-09T14:50:51;7.57;;;3.83;;
13975;SDS011;7062;49.792;9.946;2023-10-09T14:53:23;7.73;;;4.30;;
13975;SDS011;7062;49.792;9.946;2023-10-09T14:55:55;10.27;;;3.67;;
13975;SDS011;7062;49.792;9.946;2023-10-09T14:58:21;7.53;;;3.53;;
13975;SDS011;7062;49.792;9.946;2023-10-09T15:00:53;9.80;;;4.40;;
13975;SDS011;7062;49.792;9.946;2023-10-09T15:03:19;7.10;;;3.63;;
13975;SDS011;7062;49.792;9.946;2023-10-09T15:05:45;6.93;;;3.87;;
13975;SDS011;7062;49.792;9.946;2023-10-09T15:08:11;11.63;;;4.70;;
13975;SDS011;7062;49.792;9.946;2023-10-09T15:10:52;11.33;;;3.90;;
13975;SDS011;7062;49.792;9.946;2023-10-09T15:13:21;8.53;;;3.77;;
13975;SDS011;7062;49.792;9.946;2023-10-09T15:15:53;8.37;;;3.70;;
13975;SDS011;7062;49.792;9.946;2023-10-09T15:18:20;6.00;;;3.57;;
13975;SDS011;7062;49.792;9.946;2023-10-09T15:20:50;7.93;;;3.80;;
13975;SDS011;7062;49.792;9.946;2023-10-09T15:23:17;9.87;;;4.17;;
13975;SDS011;7062;49.792;9.946;2023-10-09T15:25:45;6.67;;;3.70;;
13975;SDS011;7062;49.792;9.946;2023-10-09T15:28:14;9.10;;;3.17;;
13975;SDS011;7062;49.792;9.946;2023-10-09T15:30:41;7.67;;;3.63;;
13975;SDS011;7062;49.792;9.946;2023-10-09T15:33:07;7.17;;;3.43;;
13975;SDS011;7062;49.792;9.946;2023-10-09T15:35:35;10.20;;;3.77;;
13975;SDS011;7062;49.792;9.946;2023-10-09T15:38:02;12.27;;;4.17;;
13975;SDS011;7062;49.792;9.946;2023-10-09T15:40:31;9.57;;;4.30;;
13975;SDS011;7062;49.792;9.946;2023-10-09T15:43:01;6.50;;;3.60;;
13975;SDS011;7062;49.792;9.946;2023-10-09T15:45:29;10.27;;;4.27;;
13975;SDS011;7062;49.792;9.946;2023-10-09T15:47:56;7.27;;;4.40;;
13975;SDS011;7062;49.792;9.946;2023-10-09T15:50:24;7.53;;;3.80;;
13975;SDS011;7062;49.792;9.946;2023-10-09T15:52:53;10.50;;;3.93;;
13975;SDS011;7062;49.792;9.946;2023-10-09T15:55:20;11.93;;;3.87;;
13975;SDS011;7062;49.792;9.946;2023-10-09T15:57:49;5.90;;;3.60;;
13975;SDS011;7062;49.792;9.946;2023-10-09T16:00:19;8.03;;;3.90;;
13975;SDS011;7062;49.792;9.946;2023-10-09T16:02:47;6.97;;;4.17;;
13975;SDS011;7062;49.792;9.946;2023-10-09T16:05:13;9.57;;;5.97;;
13975;SDS011;7062;49.792;9.946;2023-10-09T16:07:41;7.03;;;3.70;;
13975;SDS011;7062;49.792;9.946;2023-10-09T16:10:08;5.77;;;3.87;;
13975;SDS011;7062;49.792;9.946;2023-10-09T16:12:38;8.30;;;3.83;;
13975;SDS011;7062;49.792;9.946;2023-10-09T16:15:06;8.60;;;4.53;;
13975;SDS011;7062;49.792;9.946;2023-10-09T16:17:33;5.67;;;3.43;;
13975;SDS011;7062;49.792;9.946;2023-10-09T16:19:59;6.73;;;4.20;;